Walla Walla Regional Airport
KALW : now visible

Airfield :











YOU CAN JOIN US ON...

 
LOGIN :

Register | Disclaimer

   EN    FR    IT 

 









Legend :    VFR   Marginal VFR   IFR   Intensive IFR   Very Intensive IFR
Visi :
Ceiling :
>= 8 km
>= 3000ft
5 to 8 km
1000 to 3000 ft
1500m to 5 km
500 to 1000 ft
800 to 1500m
200 to 500 ft
< 800m
< 200 ft
Symbols :   Thunderstorms  Fog  Heavy snow  Heavy precipitations  Wind > 20 kt






- Airport Elevation : 1194 ft
- IATA code : ALW


KALW - Walla Walla Regional

CURRENT METAR :
  • 291253Z 19009KT 10SM CLR 15/08 A3010 RMK AO2 SLP187 T01500083

EXPIRED METARs :
  • 291153Z AUTO 19010KT 10SM CLR 15/08 A3009 RMK AO2 SLP183 T01500078 10178 20139 50003
  • 291053Z AUTO 19007KT 10SM CLR 14/08 A3009 RMK AO2 SLP185 T01440083

TAF KALW
Valid from the 29 at 12:00 until the 30 at 12:00 UTC


291120Z 2912/3012 19010KT P6SM SKC
FM291500 22012KT P6SM SCT250
FM300300 16006KT P6SM SCT200
KZSE FIR / North America



MET'MAP, your aeronautical weather chart ! - Copyright ORBIFLY December 2007 - Disclaimer

ORBIFLY MET'MAP TEAM :

Programming & Development : Alexandra Zaïnal
Original concept : Baudouin d'Aumeries
Technical & hardware support : Manuel Goepfert
Assistance : Marc-Olivier Méhu




SOURCES & CREDITS :

   NOAA       Earth
Advisory